La Serena, Chile
Current Conditions -  °F | °C
As of 10:00 AM on Sunday 21 Dec 2014 (Local Time) from SCSE Reporting Station
Clear Clear  
Wind Chill: 63°   Ceiling: Unl
Heat Index: 63°   Visibility: 6mi
Dew Point: 52°   Wind: 10mph
Humidity: 68%   Direction: 310°NW
Pressure: 30.03"   Gusts: NA
Location:  29.9°S, 71.25°W
Report Text: SCSE 211400Z 31009KT CAVOK 17/11 Q1017
Loading
Personal Weather Stations






























Interactive Weather Map New forecast layout! Learn more

10-Day Weather Forecast

Advertisements
Track Severe Weather on mobile